Time;durP1;ratioP1;P1;durP2;ratioP2;P2;SDS_P1;SDS_P2;PMS_P1;PMS_P2;Temp;Humidity;BMP_temperature;BMP_pressure;BME280_temperature;BME280_humidity;BME280_pressure;Samples;Min_cycle;Max_cycle;Signal;HPM_P1;HPM_P2
2021/09/03 00:01:01;;;;;;;19.67;12.02;;;16.80;99.90;;;;;;5052890;28;20033;-85
2021/09/03 00:03:27;;;;;;;20.38;12.05;;;16.70;99.90;;;;;;5053415;28;20399;-85
2021/09/03 00:05:52;;;;;;;17.65;12.13;;;16.80;99.90;;;;;;5036861;28;20074;-85
2021/09/03 00:08:18;;;;;;;17.42;12.30;;;16.80;99.90;;;;;;5036985;28;20040;-85
2021/09/03 00:10:44;;;;;;;18.92;12.55;;;16.80;99.90;;;;;;5036302;28;20021;-85
2021/09/03 00:13:09;;;;;;;18.80;12.48;;;16.70;99.90;;;;;;5054871;28;20501;-85
2021/09/03 00:15:35;;;;;;;19.15;12.60;;;16.70;99.90;;;;;;5053115;28;20528;-85
2021/09/03 00:18:02;;;;;;;19.17;11.93;;;16.70;99.90;;;;;;5036532;28;20470;-85
2021/09/03 00:20:29;;;;;;;21.15;12.13;;;16.70;99.90;;;;;;5035133;28;20028;-85
2021/09/03 00:22:55;;;;;;;16.15;10.57;;;16.70;99.90;;;;;;5036451;28;20044;-84
2021/09/03 00:25:20;;;;;;;19.40;12.50;;;16.70;99.90;;;;;;5055373;28;20500;-84
2021/09/03 00:27:46;;;;;;;20.30;12.98;;;16.60;99.90;;;;;;5037106;28;20398;-85
2021/09/03 00:30:13;;;;;;;17.88;11.85;;;16.60;99.90;;;;;;5034933;28;20028;-85
2021/09/03 00:32:39;;;;;;;15.82;11.73;;;16.60;99.90;;;;;;5052544;28;20028;-85
2021/09/03 00:35:06;;;;;;;18.77;12.48;;;16.60;99.90;;;;;;5034876;28;20029;-85
2021/09/03 00:37:32;;;;;;;18.85;12.38;;;16.60;99.90;;;;;;5052483;28;20434;-85
2021/09/03 00:39:58;;;;;;;20.27;13.00;;;16.50;99.90;;;;;;5034293;28;20104;-85
2021/09/03 00:42:23;;;;;;;21.15;13.00;;;16.50;99.90;;;;;;5034104;28;20048;-85
2021/09/03 00:44:49;;;;;;;20.85;12.73;;;16.50;99.90;;;;;;5052218;28;20031;-85
2021/09/03 00:47:15;;;;;;;20.02;12.65;;;16.50;99.90;;;;;;5035110;28;20025;-85
2021/09/03 00:49:41;;;;;;;18.95;12.05;;;16.40;99.90;;;;;;5033972;28;20028;-85
2021/09/03 00:52:07;;;;;;;20.23;12.45;;;16.40;99.90;;;;;;5051667;28;20436;-86
2021/09/03 00:54:34;;;;;;;16.10;11.55;;;16.40;99.90;;;;;;5036140;28;20075;-85
2021/09/03 00:57:00;;;;;;;21.88;13.30;;;16.40;99.90;;;;;;5034904;28;20039;-85
2021/09/03 00:59:25;;;;;;;19.27;12.32;;;16.40;99.90;;;;;;5034033;28;20032;-85
2021/09/03 01:01:51;;;;;;;20.00;12.57;;;16.40;99.90;;;;;;5034333;28;20119;-85
2021/09/03 01:04:17;;;;;;;18.83;12.85;;;16.40;99.90;;;;;;5034471;28;20017;-85
2021/09/03 01:06:43;;;;;;;18.17;13.13;;;16.40;99.90;;;;;;5034284;28;20029;-85
2021/09/03 01:09:08;;;;;;;20.40;14.20;;;16.40;99.90;;;;;;5033899;28;20486;-86
2021/09/03 01:11:35;;;;;;;18.13;12.27;;;16.30;99.90;;;;;;5051992;28;20067;-84
2021/09/03 01:14:01;;;;;;;17.73;11.77;;;16.30;99.90;;;;;;5054842;28;20025;-84
2021/09/03 01:16:26;;;;;;;22.70;13.73;;;16.30;99.90;;;;;;5054093;28;20170;-84
2021/09/03 01:18:52;;;;;;;19.70;13.50;;;16.20;99.90;;;;;;5053854;28;20017;-84
2021/09/03 01:21:19;;;;;;;21.92;13.35;;;16.30;99.90;;;;;;5037660;28;20390;-84
2021/09/03 01:23:45;;;;;;;18.80;13.60;;;16.30;99.90;;;;;;5037411;28;20098;-84
2021/09/03 01:26:11;;;;;;;20.90;12.93;;;16.20;99.90;;;;;;5037506;28;20029;-84
2021/09/03 01:28:38;;;;;;;21.73;14.00;;;16.20;99.90;;;;;;5037918;28;20025;-84
2021/09/03 01:31:04;;;;;;;20.58;13.68;;;16.30;99.90;;;;;;5055249;28;20107;-85
2021/09/03 01:33:30;;;;;;;19.75;14.73;;;16.20;99.90;;;;;;5037456;28;20035;-84
2021/09/03 01:35:56;;;;;;;21.45;13.88;;;16.20;99.90;;;;;;5037237;28;20025;-85
2021/09/03 01:38:22;;;;;;;22.17;14.45;;;16.20;99.90;;;;;;5054338;28;20025;-84
2021/09/03 01:40:48;;;;;;;20.88;14.00;;;16.10;99.90;;;;;;5036968;28;20032;-84
2021/09/03 01:43:14;;;;;;;24.52;15.43;;;16.10;99.90;;;;;;5054945;28;20053;-84
2021/09/03 01:45:40;;;;;;;23.90;14.55;;;16.20;99.90;;;;;;5038063;28;20024;-84
2021/09/03 01:48:05;;;;;;;23.80;15.00;;;16.10;99.90;;;;;;5056495;28;20021;-84
2021/09/03 01:50:31;;;;;;;24.58;15.20;;;16.10;99.90;;;;;;5055663;28;20029;-84
2021/09/03 01:52:57;;;;;;;24.40;15.98;;;16.10;99.90;;;;;;5037879;28;20036;-84
2021/09/03 01:55:22;;;;;;;23.15;15.02;;;16.10;99.90;;;;;;5057270;28;20055;-85
2021/09/03 01:57:48;;;;;;;19.52;13.23;;;16.00;99.90;;;;;;5058740;28;20017;-85
2021/09/03 02:00:14;;;;;;;22.60;15.43;;;16.00;99.90;;;;;;5060487;28;20386;-84
2021/09/03 02:02:40;;;;;;;21.60;15.35;;;16.00;99.90;;;;;;5042400;28;20021;-84
2021/09/03 02:05:06;;;;;;;21.17;15.23;;;16.00;99.90;;;;;;5042656;28;20463;-84
2021/09/03 02:07:32;;;;;;;26.98;15.95;;;15.90;99.90;;;;;;5061007;28;20033;-84
2021/09/03 02:09:58;;;;;;;20.02;13.73;;;15.90;99.90;;;;;;5042121;28;20029;-84
2021/09/03 02:12:24;;;;;;;23.33;14.23;;;15.90;99.90;;;;;;5061364;28;20025;-84
2021/09/03 02:14:49;;;;;;;22.45;14.27;;;16.00;99.90;;;;;;5059899;28;20478;-84
2021/09/03 02:17:15;;;;;;;23.17;15.82;;;16.00;99.90;;;;;;5060473;28;20047;-84
2021/09/03 02:19:41;;;;;;;22.23;15.88;;;16.00;99.90;;;;;;5062503;28;20055;-84
2021/09/03 02:22:07;;;;;;;21.55;14.65;;;15.90;99.90;;;;;;5061952;28;20465;-84
2021/09/03 02:24:33;;;;;;;23.83;15.75;;;15.90;99.90;;;;;;5062810;28;20478;-84
2021/09/03 02:26:58;;;;;;;24.45;16.17;;;15.90;99.90;;;;;;5043935;28;20435;-84
2021/09/03 02:29:24;;;;;;;26.98;16.88;;;15.90;99.90;;;;;;5043835;28;20174;-84
2021/09/03 02:31:50;;;;;;;22.17;15.45;;;15.90;99.90;;;;;;5044475;28;20025;-84
2021/09/03 02:34:15;;;;;;;25.83;16.98;;;15.90;99.90;;;;;;5062623;28;20017;-84
2021/09/03 02:36:41;;;;;;;27.10;16.98;;;15.80;99.90;;;;;;5043507;28;20196;-85
2021/09/03 02:39:06;;;;;;;29.00;17.48;;;15.80;99.90;;;;;;5043204;28;20052;-84
2021/09/03 02:41:33;;;;;;;23.50;16.25;;;15.80;99.90;;;;;;5044349;28;20032;-84
2021/09/03 02:43:59;;;;;;;30.92;17.58;;;15.80;99.90;;;;;;5061338;28;20564;-84
2021/09/03 02:46:25;;;;;;;23.00;16.00;;;15.80;99.90;;;;;;5044629;28;20036;-85
2021/09/03 02:48:50;;;;;;;23.48;16.95;;;15.80;99.90;;;;;;5061795;28;20104;-84
2021/09/03 02:51:16;;;;;;;30.15;19.83;;;15.90;99.90;;;;;;5062584;28;20024;-84
2021/09/03 02:53:42;;;;;;;24.55;15.57;;;15.80;99.90;;;;;;5044082;28;20045;-84
2021/09/03 02:56:07;;;;;;;27.00;17.23;;;15.80;99.90;;;;;;5060259;28;20033;-84
2021/09/03 02:58:33;;;;;;;27.33;16.73;;;15.90;99.90;;;;;;5043763;28;20055;-84
2021/09/03 03:00:58;;;;;;;25.77;17.10;;;15.80;99.90;;;;;;5043937;28;20040;-85
2021/09/03 03:03:24;;;;;;;27.60;17.80;;;15.80;99.90;;;;;;5062418;28;20021;-84
2021/09/03 03:05:50;;;;;;;26.85;18.40;;;15.80;99.90;;;;;;5043170;28;20494;-84
2021/09/03 03:08:15;;;;;;;27.15;18.63;;;15.80;99.90;;;;;;5062871;28;20036;-84
2021/09/03 03:10:41;;;;;;;24.73;18.67;;;15.70;99.90;;;;;;5061790;28;20082;-84
2021/09/03 03:13:20;;;;;;;28.13;17.45;;;15.70;99.90;;;;;;5062249;28;20056;-84
2021/09/03 03:15:46;;;;;;;25.38;17.50;;;15.70;99.90;;;;;;5044550;28;20049;-84
2021/09/03 03:18:12;;;;;;;27.75;18.30;;;15.60;99.90;;;;;;5045181;28;20088;-84
2021/09/03 03:20:37;;;;;;;24.23;17.02;;;15.60;99.90;;;;;;5061371;28;20044;-84
2021/09/03 03:23:03;;;;;;;27.90;18.08;;;15.60;99.90;;;;;;5045034;28;20067;-84
2021/09/03 03:25:29;;;;;;;26.98;17.15;;;15.60;99.90;;;;;;5047445;28;20033;-84
2021/09/03 03:27:54;;;;;;;24.65;15.93;;;15.60;99.90;;;;;;5062805;28;20029;-84
2021/09/03 03:30:20;;;;;;;22.38;15.23;;;15.60;99.90;;;;;;5044977;28;20519;-84
2021/09/03 03:32:46;;;;;;;23.20;16.33;;;15.60;99.90;;;;;;5044471;28;20025;-84
2021/09/03 03:35:12;;;;;;;27.30;18.60;;;15.60;99.90;;;;;;5063423;28;20058;-84
2021/09/03 03:37:37;;;;;;;27.65;18.90;;;15.60;99.90;;;;;;5048143;28;20021;-84
2021/09/03 03:40:03;;;;;;;28.25;17.92;;;15.50;99.90;;;;;;5046556;28;20095;-84
2021/09/03 03:42:29;;;;;;;32.25;18.52;;;15.50;99.90;;;;;;5063840;28;20028;-85
2021/09/03 03:44:55;;;;;;;29.83;18.60;;;15.50;99.90;;;;;;5046974;28;20046;-84
2021/09/03 03:47:20;;;;;;;30.20;19.33;;;15.50;99.90;;;;;;5062734;28;20040;-85
2021/09/03 03:49:46;;;;;;;30.08;19.15;;;15.50;99.90;;;;;;5057229;28;20029;-85
2021/09/03 03:52:11;;;;;;;23.98;16.92;;;15.50;99.90;;;;;;5054419;28;20071;-84
2021/09/03 03:54:37;;;;;;;24.33;15.55;;;15.40;99.90;;;;;;5038787;28;20028;-84
2021/09/03 03:57:03;;;;;;;29.55;18.08;;;15.40;99.90;;;;;;5037991;28;20029;-84
2021/09/03 03:59:29;;;;;;;29.23;18.98;;;15.40;99.90;;;;;;5056298;28;20048;-84
2021/09/03 04:01:54;;;;;;;25.92;17.92;;;15.40;99.90;;;;;;5037921;28;20028;-84
2021/09/03 04:04:20;;;;;;;26.83;17.83;;;15.40;99.90;;;;;;5056630;28;20025;-84
2021/09/03 04:06:45;;;;;;;25.65;16.30;;;15.40;99.90;;;;;;5037437;28;20028;-84
2021/09/03 04:09:11;;;;;;;26.70;17.85;;;15.40;99.90;;;;;;5055393;28;20405;-84
2021/09/03 04:11:37;;;;;;;30.58;18.80;;;15.40;99.90;;;;;;5037223;28;20118;-84
2021/09/03 04:14:02;;;;;;;26.90;17.15;;;15.40;99.90;;;;;;5055765;28;20048;-84
2021/09/03 04:16:28;;;;;;;29.17;17.33;;;15.40;99.90;;;;;;5037920;28;20025;-84
2021/09/03 04:18:54;;;;;;;28.25;17.80;;;15.40;99.90;;;;;;5056946;28;20025;-84
2021/09/03 04:21:19;;;;;;;27.23;16.65;;;15.40;99.90;;;;;;5063631;28;20048;-84
2021/09/03 04:23:45;;;;;;;27.90;17.27;;;15.40;99.90;;;;;;5050918;28;20051;-84
2021/09/03 04:26:11;;;;;;;23.80;16.90;;;15.40;99.90;;;;;;5038173;28;20025;-84
2021/09/03 04:28:36;;;;;;;27.98;16.75;;;15.40;99.90;;;;;;5038128;28;20075;-84
2021/09/03 04:31:02;;;;;;;28.10;17.30;;;15.40;99.90;;;;;;5037557;28;20035;-84
2021/09/03 04:33:27;;;;;;;25.90;16.92;;;15.40;99.90;;;;;;5037148;28;20102;-84
2021/09/03 04:35:53;;;;;;;28.60;17.63;;;15.40;99.90;;;;;;5056056;28;20028;-84
2021/09/03 04:38:20;;;;;;;24.23;15.90;;;15.40;99.90;;;;;;5055421;28;20028;-84
2021/09/03 04:40:46;;;;;;;26.08;17.27;;;15.40;99.90;;;;;;5036630;28;20021;-84
2021/09/03 04:43:12;;;;;;;29.20;17.98;;;15.40;99.90;;;;;;5054858;28;20028;-84
2021/09/03 04:45:37;;;;;;;30.60;18.33;;;15.40;99.90;;;;;;5036784;28;20091;-84
2021/09/03 04:48:04;;;;;;;27.73;18.23;;;15.30;99.90;;;;;;5037270;28;20032;-84
2021/09/03 04:50:30;;;;;;;24.75;18.10;;;15.30;99.90;;;;;;5036124;28;20075;-84
2021/09/03 04:52:55;;;;;;;25.85;17.95;;;15.30;99.90;;;;;;5052864;28;20032;-85
2021/09/03 04:55:21;;;;;;;27.42;17.25;;;15.30;99.90;;;;;;5052401;28;20029;-85
2021/09/03 04:57:47;;;;;;;28.60;18.70;;;15.30;99.90;;;;;;5034685;28;20112;-85
2021/09/03 05:00:17;;;;;;;27.85;17.85;;;15.30;99.90;;;;;;5051757;28;20432;-84
2021/09/03 05:02:43;;;;;;;23.27;16.00;;;15.20;99.90;;;;;;5052358;28;20017;-85
2021/09/03 05:05:09;;;;;;;30.88;18.30;;;15.20;99.90;;;;;;5034743;28;20170;-85
2021/09/03 05:07:35;;;;;;;26.00;17.02;;;15.20;99.90;;;;;;5034635;28;20033;-85
2021/09/03 05:10:01;;;;;;;22.80;15.57;;;15.20;99.90;;;;;;5051668;28;20036;-85
2021/09/03 05:12:29;;;;;;;26.15;17.10;;;15.20;99.90;;;;;;5034074;28;20029;-85
2021/09/03 05:14:55;;;;;;;28.73;17.58;;;15.20;99.90;;;;;;5034312;28;20032;-85
2021/09/03 05:17:21;;;;;;;24.42;17.40;;;15.20;99.90;;;;;;5052453;28;20052;-85
2021/09/03 05:19:47;;;;;;;24.77;17.08;;;15.20;99.90;;;;;;5050202;28;20389;-85
2021/09/03 05:22:13;;;;;;;31.13;18.63;;;15.10;99.90;;;;;;5034843;28;20017;-85
2021/09/03 05:24:39;;;;;;;27.63;17.63;;;15.10;99.90;;;;;;5034233;28;20021;-84
2021/09/03 05:27:05;;;;;;;29.98;18.48;;;15.10;99.90;;;;;;5034112;28;20025;-84
2021/09/03 05:29:31;;;;;;;23.35;16.45;;;15.10;99.90;;;;;;5049642;28;20079;-84
2021/09/03 05:31:56;;;;;;;28.30;18.20;;;15.10;99.90;;;;;;5051883;28;20032;-85
2021/09/03 05:34:22;;;;;;;27.52;17.95;;;15.20;99.90;;;;;;5034213;28;20031;-85
2021/09/03 05:36:47;;;;;;;32.58;18.98;;;15.20;99.90;;;;;;5052233;28;20029;-85
2021/09/03 05:39:13;;;;;;;28.13;18.35;;;15.20;99.90;;;;;;5051714;28;20068;-85
2021/09/03 05:41:39;;;;;;;27.67;18.92;;;15.20;99.90;;;;;;5034227;28;20045;-84
2021/09/03 05:44:04;;;;;;;29.73;18.05;;;15.20;99.90;;;;;;5034264;28;20079;-85
2021/09/03 05:46:30;;;;;;;31.13;18.85;;;15.20;99.90;;;;;;5033967;28;20025;-85
2021/09/03 05:48:56;;;;;;;25.85;18.08;;;15.30;99.90;;;;;;5051386;28;20493;-85
2021/09/03 05:51:21;;;;;;;29.63;19.02;;;15.30;99.90;;;;;;5051711;28;20067;-84
2021/09/03 05:53:47;;;;;;;29.27;19.20;;;15.40;99.90;;;;;;5050326;28;20040;-85
2021/09/03 05:56:13;;;;;;;33.53;19.92;;;15.30;99.90;;;;;;5051397;28;20044;-85
2021/09/03 05:58:38;;;;;;;32.20;18.92;;;15.30;99.90;;;;;;5051536;28;20021;-85
2021/09/03 06:01:04;;;;;;;30.08;20.40;;;15.30;99.90;;;;;;5050893;28;20328;-84
2021/09/03 06:03:30;;;;;;;31.23;20.52;;;15.30;99.90;;;;;;5033807;28;20032;-85
2021/09/03 06:05:55;;;;;;;35.33;20.85;;;15.30;99.90;;;;;;5033637;28;20033;-85
2021/09/03 06:08:21;;;;;;;25.63;17.88;;;15.30;99.90;;;;;;5033716;28;20040;-85
2021/09/03 06:10:47;;;;;;;33.83;20.85;;;15.30;99.90;;;;;;5050791;28;20025;-85
2021/09/03 06:13:13;;;;;;;33.38;19.95;;;15.40;99.90;;;;;;5033363;28;20029;-85
2021/09/03 06:15:39;;;;;;;31.30;19.83;;;15.40;99.90;;;;;;5033653;28;20045;-85
2021/09/03 06:18:05;;;;;;;29.17;19.85;;;15.40;99.90;;;;;;5050260;28;20028;-85
2021/09/03 06:20:30;;;;;;;30.23;18.70;;;15.50;99.90;;;;;;5032922;28;20401;-85
2021/09/03 06:22:56;;;;;;;31.20;19.13;;;15.50;99.90;;;;;;5051207;28;20525;-85
2021/09/03 06:25:22;;;;;;;27.23;17.40;;;15.50;99.90;;;;;;5033431;28;20546;-84
2021/09/03 06:27:47;;;;;;;25.23;17.73;;;15.50;99.90;;;;;;5051314;28;20402;-85
2021/09/03 06:30:14;;;;;;;27.02;16.95;;;15.50;99.90;;;;;;5033025;28;20021;-84
2021/09/03 06:32:40;;;;;;;23.75;15.02;;;15.50;99.90;;;;;;5032801;28;20033;-84
2021/09/03 06:35:07;;;;;;;20.75;14.23;;;15.60;99.90;;;;;;5033360;28;20162;-85
2021/09/03 06:37:33;;;;;;;27.13;17.13;;;15.60;99.90;;;;;;5049919;28;20477;-85
2021/09/03 06:39:59;;;;;;;26.77;16.92;;;15.60;99.90;;;;;;5032813;28;20028;-85
2021/09/03 06:42:25;;;;;;;22.92;15.07;;;15.60;99.90;;;;;;5035750;28;20029;-85
2021/09/03 06:44:51;;;;;;;20.20;14.35;;;15.70;99.90;;;;;;5054910;28;20044;-85
2021/09/03 06:47:17;;;;;;;24.17;14.82;;;15.70;99.90;;;;;;5036838;28;20032;-85
2021/09/03 06:49:44;;;;;;;24.17;13.90;;;15.80;99.90;;;;;;5036087;28;20440;-85
2021/09/03 06:52:11;;;;;;;25.58;16.05;;;15.80;99.90;;;;;;5036564;28;20500;-85
2021/09/03 06:54:37;;;;;;;25.10;16.15;;;15.90;99.90;;;;;;5036441;28;20029;-85
2021/09/03 06:57:04;;;;;;;25.02;16.25;;;16.00;99.90;;;;;;5036606;28;20075;-85
2021/09/03 06:59:30;;;;;;;23.45;15.65;;;16.00;99.90;;;;;;5036193;28;20027;-85
2021/09/03 07:01:56;;;;;;;24.75;15.82;;;16.10;99.90;;;;;;5036416;28;20036;-85
2021/09/03 07:04:21;;;;;;;22.55;14.57;;;16.10;99.90;;;;;;5036587;28;20033;-85
2021/09/03 07:06:49;;;;;;;24.67;15.70;;;16.20;99.90;;;;;;5054363;28;20028;-85
2021/09/03 07:09:15;;;;;;;20.50;13.65;;;16.20;99.90;;;;;;5052441;28;20036;-85
2021/09/03 07:11:40;;;;;;;17.30;12.00;;;16.30;99.90;;;;;;5052987;28;20033;-84
2021/09/03 07:14:06;;;;;;;17.65;11.82;;;16.30;99.90;;;;;;5052931;28;20033;-84
2021/09/03 07:16:32;;;;;;;19.15;12.63;;;16.40;99.90;;;;;;5036281;28;20033;-84
2021/09/03 07:19:02;;;;;;;20.33;13.27;;;16.40;99.90;;;;;;5035868;28;20021;-85
2021/09/03 07:21:28;;;;;;;18.90;12.73;;;16.40;99.90;;;;;;5053925;28;20028;-85
2021/09/03 07:23:53;;;;;;;16.20;11.45;;;16.50;99.90;;;;;;5054248;28;20033;-85
2021/09/03 07:26:19;;;;;;;17.42;11.10;;;16.50;99.90;;;;;;5036287;28;20039;-85
2021/09/03 07:28:45;;;;;;;18.90;11.48;;;16.60;99.90;;;;;;5036123;28;20406;-85
2021/09/03 07:31:10;;;;;;;16.15;11.75;;;16.60;99.90;;;;;;5035558;28;20087;-85
2021/09/03 07:33:36;;;;;;;16.10;11.48;;;16.70;99.90;;;;;;5052538;28;20025;-85
2021/09/03 07:36:02;;;;;;;19.60;12.02;;;16.80;99.90;;;;;;5035849;28;20116;-85
2021/09/03 07:38:28;;;;;;;16.77;11.20;;;16.80;99.90;;;;;;5052445;28;20029;-85
2021/09/03 07:40:54;;;;;;;13.65;9.70;;;16.90;99.90;;;;;;5035236;28;20078;-85
2021/09/03 07:43:20;;;;;;;14.93;9.50;;;16.90;99.90;;;;;;5035792;28;20025;-84
2021/09/03 07:45:45;;;;;;;13.10;9.30;;;16.90;99.90;;;;;;5035664;28;20267;-85
2021/09/03 07:48:11;;;;;;;14.57;9.80;;;17.00;99.90;;;;;;5053510;28;20236;-85
2021/09/03 07:50:37;;;;;;;15.18;10.48;;;17.00;99.90;;;;;;5035054;28;20363;-85
2021/09/03 07:53:05;;;;;;;14.15;9.93;;;17.00;99.90;;;;;;5034942;28;20039;-84
2021/09/03 07:55:31;;;;;;;18.00;10.95;;;17.10;99.90;;;;;;5035541;28;20539;-84
2021/09/03 07:57:57;;;;;;;16.13;10.60;;;17.10;99.90;;;;;;5035417;28;20025;-85
2021/09/03 08:00:23;;;;;;;18.05;11.43;;;17.10;99.90;;;;;;5035011;28;20017;-85
2021/09/03 08:02:48;;;;;;;17.45;11.25;;;17.20;99.90;;;;;;5051847;28;20025;-85
2021/09/03 08:05:14;;;;;;;15.90;10.45;;;17.30;99.90;;;;;;5035414;28;20021;-85
2021/09/03 08:07:42;;;;;;;18.00;11.30;;;17.20;99.90;;;;;;5035236;28;20036;-85
2021/09/03 08:10:15;;;;;;;22.33;12.88;;;17.30;99.90;;;;;;5034749;28;20032;-85
2021/09/03 08:12:42;;;;;;;17.10;11.65;;;17.30;99.90;;;;;;5053024;28;20028;-85
2021/09/03 08:15:09;;;;;;;21.92;13.30;;;17.40;99.90;;;;;;5035160;28;20086;-84
2021/09/03 08:17:35;;;;;;;16.48;11.60;;;17.40;99.90;;;;;;5035075;28;20032;-85
2021/09/03 08:20:02;;;;;;;18.23;11.60;;;17.50;99.90;;;;;;5052249;28;20017;-84
2021/09/03 08:22:28;;;;;;;17.42;11.57;;;17.50;99.90;;;;;;5035887;28;20025;-85
2021/09/03 08:24:54;;;;;;;22.48;12.88;;;17.60;99.90;;;;;;5034955;28;20021;-85
2021/09/03 08:27:19;;;;;;;16.38;11.07;;;17.60;99.90;;;;;;5052752;28;20525;-85
2021/09/03 08:29:46;;;;;;;19.83;12.23;;;17.60;99.90;;;;;;5034390;28;20036;-85
2021/09/03 08:32:12;;;;;;;17.65;11.18;;;17.70;99.90;;;;;;5052792;28;20470;-85
2021/09/03 08:34:38;;;;;;;18.52;10.73;;;17.80;99.90;;;;;;5052792;28;20024;-85
2021/09/03 08:37:04;;;;;;;19.00;11.25;;;17.80;99.90;;;;;;5034853;28;20087;-85
2021/09/03 08:39:30;;;;;;;14.40;9.50;;;17.90;99.90;;;;;;5034325;28;20028;-84
2021/09/03 08:41:55;;;;;;;23.58;11.68;;;17.90;99.90;;;;;;5034611;28;20044;-85
2021/09/03 08:44:21;;;;;;;15.10;9.57;;;17.90;99.90;;;;;;5034646;28;20025;-85
2021/09/03 08:46:48;;;;;;;17.30;9.50;;;17.90;99.90;;;;;;5034714;28;20489;-84
2021/09/03 08:49:14;;;;;;;15.00;9.20;;;17.90;99.90;;;;;;5051688;28;20029;-84
2021/09/03 08:51:39;;;;;;;13.25;9.45;;;17.90;99.90;;;;;;5034322;28;20032;-85
2021/09/03 08:54:05;;;;;;;16.80;10.45;;;17.90;99.90;;;;;;5034611;28;20029;-85
2021/09/03 08:56:31;;;;;;;15.50;9.93;;;18.00;99.90;;;;;;5052215;28;20086;-85
2021/09/03 08:58:58;;;;;;;17.20;10.68;;;18.00;99.90;;;;;;5033837;28;20114;-84
2021/09/03 09:01:23;;;;;;;14.02;9.30;;;18.10;99.90;;;;;;5034558;28;20025;-84
2021/09/03 09:03:51;;;;;;;19.67;10.82;;;18.10;99.90;;;;;;5033390;28;20028;-85
2021/09/03 09:06:25;;;;;;;13.43;9.07;;;18.10;99.90;;;;;;5034229;28;20464;-84
2021/09/03 09:08:55;;;;;;;18.30;10.10;;;18.20;99.90;;;;;;5033979;28;20032;-84
2021/09/03 09:11:25;;;;;;;14.57;9.95;;;18.30;99.90;;;;;;5034107;28;20032;-85
2021/09/03 09:13:50;;;;;;;16.65;10.30;;;18.30;99.90;;;;;;5034189;28;20024;-85
2021/09/03 09:16:18;;;;;;;13.80;8.75;;;18.30;99.90;;;;;;5033929;28;20473;-84
2021/09/03 09:18:47;;;;;;;13.90;9.25;;;18.30;99.90;;;;;;5034071;28;20021;-85
2021/09/03 09:21:30;;;;;;;15.00;10.13;;;18.40;99.90;;;;;;5033833;28;20029;-85
2021/09/03 09:24:00;;;;;;;13.15;9.23;;;18.40;99.90;;;;;;5051855;28;20021;-85
2021/09/03 09:26:48;;;;;;;16.50;9.70;;;18.40;99.90;;;;;;5033884;28;20028;-85
2021/09/03 09:29:23;;;;;;;16.02;8.93;;;18.60;99.90;;;;;;5033819;28;20035;-85
2021/09/03 09:31:55;;;;;;;13.27;8.45;;;18.60;99.90;;;;;;5033836;28;20029;-85
2021/09/03 09:34:22;;;;;;;12.38;8.32;;;18.60;99.90;;;;;;5033862;28;20125;-85
2021/09/03 09:36:52;;;;;;;13.82;9.07;;;18.60;99.90;;;;;;5033830;28;20390;-85
2021/09/03 09:39:19;;;;;;;12.32;8.50;;;18.60;99.90;;;;;;5033201;28;20029;-85
2021/09/03 09:41:46;;;;;;;13.93;9.05;;;18.50;99.90;;;;;;5033700;28;20031;-85
2021/09/03 09:44:12;;;;;;;15.05;9.40;;;18.50;99.90;;;;;;5033961;28;20474;-85
2021/09/03 09:46:38;;;;;;;13.38;9.00;;;18.50;99.90;;;;;;5033675;28;20035;-85
2021/09/03 09:49:11;;;;;;;13.43;8.38;;;18.60;99.90;;;;;;5033498;28;20021;-85
2021/09/03 09:51:42;;;;;;;14.23;7.93;;;18.60;99.90;;;;;;5033441;28;20028;-85
2021/09/03 09:54:09;;;;;;;16.35;8.45;;;18.70;99.90;;;;;;5033870;28;20032;-86
2021/09/03 09:56:42;;;;;;;13.15;8.35;;;18.90;99.90;;;;;;5033651;28;20037;-85
2021/09/03 09:59:09;;;;;;;10.82;7.45;;;18.90;99.90;;;;;;5033310;28;20115;-85
2021/09/03 10:01:36;;;;;;;13.85;8.63;;;19.00;99.90;;;;;;5033676;28;20494;-85
2021/09/03 10:04:08;;;;;;;13.68;8.35;;;19.00;99.90;;;;;;5033681;28;20024;-85
2021/09/03 10:06:36;;;;;;;12.35;7.85;;;19.00;99.90;;;;;;5033813;28;20542;-85
2021/09/03 10:09:03;;;;;;;11.20;7.85;;;19.00;99.90;;;;;;5051051;28;20027;-85
2021/09/03 10:11:29;;;;;;;12.68;7.47;;;19.10;99.90;;;;;;5051325;28;20032;-85
2021/09/03 10:13:56;;;;;;;12.68;7.53;;;19.10;99.90;;;;;;5033621;28;20036;-85
2021/09/03 10:16:22;;;;;;;12.98;8.18;;;19.10;99.90;;;;;;5036272;28;20170;-85
2021/09/03 10:18:54;;;;;;;12.07;7.65;;;19.10;99.80;;;;;;5054981;28;20103;-84
2021/09/03 10:21:25;;;;;;;10.65;7.47;;;19.20;99.80;;;;;;5037351;28;20035;-85
2021/09/03 10:24:10;;;;;;;13.73;7.80;;;19.20;99.80;;;;;;5037341;28;20059;-85
2021/09/03 10:26:42;;;;;;;10.98;7.20;;;19.10;99.80;;;;;;5055177;28;20025;-85
2021/09/03 10:29:16;;;;;;;10.27;7.55;;;19.10;99.40;;;;;;5036653;28;20036;-85
2021/09/03 10:32:08;;;;;;;10.52;7.53;;;19.10;99.80;;;;;;5038065;28;20024;-86
2021/09/03 10:34:39;;;;;;;11.38;7.38;;;19.10;99.90;;;;;;5037446;28;20031;-86
2021/09/03 10:37:30;;;;;;;10.50;7.05;;;19.10;99.90;;;;;;5037240;28;20032;-86
2021/09/03 10:39:59;;;;;;;12.32;7.45;;;19.20;99.70;;;;;;5054805;28;20477;-86
2021/09/03 10:42:37;;;;;;;;;;;19.20;99.90;;;;;;5037520;28;20086;-87
2021/09/03 10:45:10;;;;;;;11.70;7.40;;;19.30;99.60;;;;;;5036832;28;19905;-86
2021/09/03 10:47:47;;;;;;;10.95;6.93;;;19.20;99.50;;;;;;5036841;28;20486;-86
2021/09/03 10:50:30;;;;;;;10.63;7.18;;;19.20;99.40;;;;;;5036288;28;20508;-86
2021/09/03 10:53:07;;;;;;;10.50;7.00;;;19.20;99.50;;;;;;5037154;28;20514;-86
2021/09/03 10:55:58;;;;;;;12.10;7.30;;;19.10;99.50;;;;;;5037090;28;20029;-86
2021/09/03 10:58:41;;;;;;;10.98;6.80;;;19.10;99.50;;;;;;5056004;28;20021;-86
2021/09/03 11:01:13;;;;;;;11.60;7.25;;;19.10;99.70;;;;;;5055509;28;20021;-86
2021/09/03 11:03:49;;;;;;;10.50;7.55;;;19.20;99.40;;;;;;5056413;28;20021;-86
2021/09/03 11:06:28;;;;;;;13.57;8.45;;;19.10;99.50;;;;;;5056001;28;20053;-86
2021/09/03 11:09:17;;;;;;;12.15;7.68;;;19.30;99.40;;;;;;5036391;28;20025;-85
2021/09/03 11:11:56;;;;;;;10.98;7.20;;;19.40;99.20;;;;;;5036543;28;20029;-86
2021/09/03 11:14:27;;;;;;;10.50;7.50;;;19.40;99.10;;;;;;5036431;28;20039;-86
2021/09/03 11:17:00;;;;;;;11.43;7.60;;;19.40;98.90;;;;;;5036535;28;20025;-86
2021/09/03 11:19:40;;;;;;;10.48;7.43;;;19.40;98.90;;;;;;5035522;28;20433;-86
2021/09/03 11:22:12;;;;;;;12.43;7.88;;;19.50;99.40;;;;;;5054091;28;20071;-86
2021/09/03 11:24:45;;;;;;;10.63;7.13;;;19.50;98.90;;;;;;5036430;28;20044;-85
2021/09/03 11:27:22;;;;;;;11.75;7.93;;;19.60;98.90;;;;;;5035325;28;20036;-86
2021/09/03 11:29:53;;;;;;;10.75;6.97;;;19.70;98.50;;;;;;5035461;28;20029;-86
2021/09/03 11:32:22;;;;;;;8.70;6.43;;;19.80;98.30;;;;;;5035623;28;20063;-86
2021/09/03 11:35:00;;;;;;;11.15;6.18;;;19.70;98.00;;;;;;5036046;28;20033;-86
2021/09/03 11:37:43;;;;;;;7.93;5.70;;;19.80;96.90;;;;;;5053663;28;20029;-86
2021/09/03 11:40:12;;;;;;;10.63;6.28;;;19.90;96.20;;;;;;5053213;28;20028;-86
2021/09/03 11:42:42;;;;;;;9.52;5.97;;;20.10;95.60;;;;;;5053628;28;20103;-86
2021/09/03 11:45:19;;;;;;;8.85;6.43;;;20.10;95.50;;;;;;5053712;28;20075;-86
2021/09/03 11:47:51;;;;;;;8.50;5.88;;;20.20;95.40;;;;;;5035662;28;20056;-85
2021/09/03 11:50:20;;;;;;;9.75;6.25;;;20.30;94.90;;;;;;5052981;28;20039;-86
2021/09/03 11:52:46;;;;;;;7.28;5.60;;;20.30;95.10;;;;;;5036345;28;20037;-86
2021/09/03 11:55:17;;;;;;;8.68;6.05;;;20.20;95.30;;;;;;5039610;28;20543;-86
2021/09/03 11:57:57;;;;;;;9.25;6.10;;;20.10;95.20;;;;;;5058002;28;20032;-86
2021/09/03 12:00:30;;;;;;;11.27;6.25;;;20.20;95.50;;;;;;5040527;28;20078;-86
2021/09/03 12:02:57;;;;;;;8.07;6.28;;;20.20;95.40;;;;;;5057674;28;20017;-86
2021/09/03 12:05:23;;;;;;;10.15;6.20;;;20.20;95.30;;;;;;5041078;28;20032;-86
2021/09/03 12:08:16;;;;;;;11.00;6.40;;;20.30;95.20;;;;;;5058948;28;20082;-86
2021/09/03 12:10:53;;;;;;;10.85;6.35;;;20.40;94.70;;;;;;5058037;28;20031;-86
2021/09/03 12:13:25;;;;;;;11.63;6.28;;;20.40;95.00;;;;;;5041236;28;20078;-86
2021/09/03 12:16:01;;;;;;;8.95;6.07;;;20.50;95.00;;;;;;5040572;28;20067;-86
2021/09/03 12:18:31;;;;;;;8.98;6.35;;;20.50;94.50;;;;;;5040963;28;20017;-86
2021/09/03 12:21:00;;;;;;;8.93;6.53;;;20.50;94.30;;;;;;5041047;28;20059;-86
2021/09/03 12:23:33;;;;;;;9.73;6.38;;;20.60;94.10;;;;;;5038052;28;20029;-86
2021/09/03 12:26:08;;;;;;;8.45;6.00;;;20.60;94.30;;;;;;5054327;28;20032;-86
2021/09/03 12:28:34;;;;;;;9.40;6.28;;;20.60;94.60;;;;;;5052884;28;20017;-86
2021/09/03 12:31:06;;;;;;;8.68;5.57;;;20.70;94.50;;;;;;5052327;28;20036;-86
2021/09/03 12:33:32;;;;;;;12.55;6.43;;;20.70;94.60;;;;;;5035021;28;20045;-86